createdAt,value
2023-04-18T00:00:59.630Z,99.09
2023-04-18T00:04:02.984Z,99.60
2023-04-18T00:07:05.281Z,99.52
2023-04-18T00:10:08.209Z,100.00
2023-04-18T00:13:10.288Z,99.77
2023-04-18T00:16:13.317Z,98.89
2023-04-18T00:19:15.527Z,99.10
2023-04-18T00:22:22.202Z,99.51
2023-04-18T00:25:24.220Z,100.00
2023-04-18T00:28:27.968Z,100.00
2023-04-18T00:31:30.745Z,99.67
2023-04-18T00:34:33.190Z,99.51
2023-04-18T00:37:35.219Z,100.00
2023-04-18T00:40:38.490Z,100.00
2023-04-18T00:43:41.025Z,99.29
2023-04-18T00:46:43.520Z,100.00
2023-04-18T00:49:45.981Z,99.88
2023-04-18T00:52:48.479Z,99.81
2023-04-18T00:55:50.571Z,100.00
2023-04-18T00:58:53.498Z,100.00
2023-04-18T01:01:55.735Z,100.00
2023-04-18T01:05:01.026Z,100.00
2023-04-18T01:08:03.127Z,100.00
2023-04-18T01:11:07.221Z,100.00
2023-04-18T01:14:11.829Z,99.81
2023-04-18T01:17:14.330Z,100.00
2023-04-18T01:20:16.971Z,99.88
2023-04-18T01:23:19.633Z,100.00
2023-04-18T01:26:21.720Z,99.60
2023-04-18T01:29:24.424Z,99.42
2023-04-18T01:32:27.537Z,99.36
2023-04-18T01:35:30.430Z,100.00
2023-04-18T01:38:33.151Z,100.00
2023-04-18T01:41:36.493Z,100.00
2023-04-18T01:44:38.519Z,100.00
2023-04-18T01:47:41.024Z,100.00
2023-04-18T01:50:45.932Z,100.00
2023-04-18T01:53:48.438Z,100.00
2023-04-18T01:56:53.463Z,100.00
2023-04-18T01:59:55.739Z,100.00
2023-04-18T02:03:01.371Z,100.00
2023-04-18T02:06:04.412Z,100.00
2023-04-18T02:09:07.442Z,100.00
2023-04-18T02:12:10.076Z,100.00
2023-04-18T02:15:12.093Z,100.00
2023-04-18T02:18:15.000Z,100.00
2023-04-18T02:21:17.017Z,100.00
2023-04-18T02:24:19.350Z,99.81
2023-04-18T02:27:21.548Z,100.00
2023-04-18T02:30:24.434Z,99.83
2023-04-18T02:33:26.421Z,99.37
2023-04-18T02:36:28.732Z,99.99
2023-04-18T02:39:32.670Z,97.52
2023-04-18T02:42:35.427Z,97.86
2023-04-18T02:45:37.708Z,96.63
2023-04-18T02:48:42.719Z,97.59
2023-04-18T02:51:45.154Z,100.00
2023-04-18T02:54:47.625Z,97.17
2023-04-18T02:57:49.959Z,96.75
2023-04-18T03:00:54.508Z,99.43
2023-04-18T03:03:57.569Z,100.00
2023-04-18T03:07:00.398Z,100.00
2023-04-18T03:10:03.770Z,100.00
2023-04-18T03:13:06.474Z,100.00
2023-04-18T03:16:08.708Z,100.00
2023-04-18T03:19:11.237Z,100.00
2023-04-18T03:22:14.021Z,100.00
2023-04-18T03:25:17.231Z,100.00
2023-04-18T03:28:19.529Z,100.00
2023-04-18T03:31:22.051Z,100.00
2023-04-18T03:34:24.160Z,100.00
2023-04-18T03:37:27.040Z,100.00
2023-04-18T03:40:29.661Z,100.00
2023-04-18T03:43:33.344Z,100.00
2023-04-18T03:46:35.908Z,100.00
2023-04-18T03:49:40.477Z,100.00
2023-04-18T03:52:43.179Z,100.00
2023-04-18T03:55:46.019Z,100.00
2023-04-18T03:58:48.653Z,100.00
2023-04-18T04:01:51.274Z,100.00
2023-04-18T04:04:53.848Z,100.00
2023-04-18T04:07:56.489Z,100.00
2023-04-18T04:10:58.889Z,100.00
2023-04-18T04:14:02.161Z,100.00
2023-04-18T04:17:05.605Z,100.00
2023-04-18T04:20:08.427Z,100.00
2023-04-18T04:23:10.946Z,100.00
2023-04-18T04:26:15.129Z,100.00
2023-04-18T04:29:17.922Z,100.00
2023-04-18T04:32:22.781Z,100.00
2023-04-18T04:35:25.199Z,100.00
2023-04-18T04:38:31.051Z,100.00
2023-04-18T04:41:37.528Z,100.00
2023-04-18T04:44:41.572Z,100.00
2023-04-18T04:47:44.160Z,100.00
2023-04-18T04:50:53.604Z,100.00
2023-04-18T04:53:56.275Z,100.00
2023-04-18T04:56:58.392Z,100.00
2023-04-18T05:00:00.788Z,100.00
2023-04-18T05:03:03.741Z,100.00
2023-04-18T05:06:06.337Z,100.00
2023-04-18T05:09:08.451Z,100.00
2023-04-18T05:12:10.935Z,100.00
2023-04-18T05:15:14.418Z,100.00
2023-04-18T05:18:16.861Z,100.00
2023-04-18T05:21:18.932Z,100.00
2023-04-18T05:24:21.429Z,100.00
2023-04-18T05:27:23.826Z,100.00
2023-04-18T05:30:26.767Z,100.00
2023-04-18T05:33:29.323Z,100.00
2023-04-18T05:36:32.365Z,100.00
2023-04-18T05:39:34.532Z,100.00
2023-04-18T05:42:36.893Z,100.00
2023-04-18T05:45:38.931Z,100.00
2023-04-18T05:48:41.423Z,100.00
2023-04-18T05:51:43.479Z,100.00
2023-04-18T05:54:46.096Z,99.71
2023-04-18T06:05:12.247Z,92.71
2023-04-18T06:08:17.647Z,90.40
2023-04-18T06:27:30.615Z,84.45
2023-04-18T06:38:37.336Z,83.96
2023-04-18T06:45:42.082Z,77.64
2023-04-18T07:01:14.402Z,57.79
2023-04-18T07:08:26.177Z,45.95
2023-04-18T07:11:29.009Z,49.63
2023-04-18T07:14:32.845Z,52.66
2023-04-18T07:17:39.565Z,56.40
2023-04-18T07:20:41.868Z,58.98
2023-04-18T07:23:44.448Z,57.26
2023-04-18T07:26:46.581Z,60.17
2023-04-18T07:29:48.950Z,60.77
2023-04-18T07:32:51.152Z,60.34
2023-04-18T07:35:53.687Z,59.28
2023-04-18T07:38:55.850Z,62.15
2023-04-18T07:41:58.901Z,61.33
2023-04-18T07:45:00.973Z,63.25
2023-04-18T07:48:03.399Z,63.58
2023-04-18T07:51:05.566Z,62.40
2023-04-18T07:54:07.889Z,62.76
2023-04-18T07:57:10.884Z,62.08
2023-04-18T08:00:15.510Z,63.24
2023-04-18T08:03:18.402Z,62.53
2023-04-18T08:06:21.595Z,64.25
2023-04-18T08:09:24.077Z,62.88
2023-04-18T08:12:26.256Z,62.24
2023-04-18T08:15:29.071Z,60.71
2023-04-18T08:22:14.744Z,58.62
2023-04-18T08:25:38.182Z,56.44
2023-04-18T08:29:18.006Z,55.33
2023-04-18T08:32:23.517Z,59.39
2023-04-18T08:35:26.259Z,61.20
2023-04-18T08:38:30.804Z,59.99
2023-04-18T08:41:38.993Z,61.06
2023-04-18T08:53:07.965Z,63.12
2023-04-18T09:15:30.889Z,58.42
2023-04-18T09:18:36.739Z,53.01
2023-04-18T10:08:16.467Z,49.34
2023-04-18T10:11:20.218Z,51.73
2023-04-18T10:14:22.884Z,49.74
2023-04-18T10:17:29.297Z,49.43
2023-04-18T10:20:32.389Z,50.21
2023-04-18T10:23:38.529Z,48.77
2023-04-18T10:53:48.947Z,44.42
2023-04-18T10:57:17.039Z,44.84
2023-04-18T12:18:15.518Z,46.80
2023-04-18T12:22:24.269Z,45.30
2023-04-18T12:30:15.499Z,44.91
2023-04-18T12:33:22.220Z,44.88
2023-04-18T12:36:24.694Z,44.83
2023-04-18T12:39:27.514Z,45.97
2023-04-18T12:42:29.683Z,41.86
2023-04-18T12:45:32.479Z,42.60
2023-04-18T12:48:34.796Z,41.97
2023-04-18T12:51:37.473Z,43.49
2023-04-18T12:54:39.715Z,42.79
2023-04-18T12:57:43.095Z,42.09
2023-04-18T13:00:46.790Z,40.85
2023-04-18T13:03:59.922Z,40.72
2023-04-18T13:07:06.390Z,41.84
2023-04-18T13:10:12.901Z,42.71
2023-04-18T13:13:15.079Z,42.85
2023-04-18T13:16:18.583Z,42.39
2023-04-18T13:19:20.600Z,40.98
2023-04-18T13:22:22.988Z,40.13
2023-04-18T13:25:25.993Z,42.42
2023-04-18T13:28:28.362Z,41.16
2023-04-18T13:31:30.780Z,39.50
2023-04-18T13:34:42.315Z,37.84
2023-04-18T13:37:44.359Z,39.74
2023-04-18T13:40:46.688Z,38.74
2023-04-18T13:43:48.786Z,40.70
2023-04-18T13:46:54.757Z,39.30
2023-04-18T13:49:57.951Z,39.17
2023-04-18T13:53:02.921Z,41.80
2023-04-18T13:56:05.799Z,40.89
2023-04-18T13:59:08.701Z,36.71
2023-04-18T14:02:11.287Z,38.80
2023-04-18T14:05:14.051Z,39.11
2023-04-18T14:08:16.099Z,39.40
2023-04-18T14:11:18.665Z,40.25
2023-04-18T14:14:20.823Z,37.85
2023-04-18T14:17:23.312Z,35.15
2023-04-18T14:20:26.506Z,36.29
2023-04-18T14:23:28.971Z,37.83
2023-04-18T14:26:31.050Z,37.99
2023-04-18T14:29:33.418Z,34.27
2023-04-18T14:32:35.632Z,33.86
2023-04-18T14:35:38.563Z,35.39
2023-04-18T14:38:40.729Z,31.38
2023-04-18T14:41:43.122Z,32.12
2023-04-18T14:44:45.209Z,32.41
2023-04-18T14:47:47.809Z,31.25
2023-04-18T14:50:56.960Z,33.63
2023-04-18T14:53:59.823Z,36.25
2023-04-18T14:57:02.020Z,37.35
2023-04-18T15:00:07.171Z,33.00
2023-04-18T15:03:11.187Z,33.94
2023-04-18T15:06:13.868Z,34.53
2023-04-18T15:09:16.231Z,35.79
2023-04-18T15:12:18.705Z,35.76
2023-04-18T15:15:20.794Z,34.93
2023-04-18T15:18:23.115Z,35.49
2023-04-18T15:21:25.245Z,36.27
2023-04-18T15:24:27.614Z,37.32
2023-04-18T15:27:30.065Z,39.13
2023-04-18T15:30:32.841Z,35.16
2023-04-18T15:33:34.889Z,35.27
2023-04-18T15:36:37.331Z,35.37
2023-04-18T15:39:39.341Z,36.10
2023-04-18T15:42:41.815Z,35.99
2023-04-18T15:45:44.543Z,35.10
2023-04-18T15:48:47.013Z,36.33
2023-04-18T15:51:49.016Z,36.81
2023-04-18T15:54:52.286Z,39.15
2023-04-18T15:57:57.341Z,38.57
2023-04-18T16:00:59.831Z,38.93
2023-04-18T16:04:02.783Z,38.35
2023-04-18T16:07:05.020Z,40.04
2023-04-18T16:10:10.104Z,38.75
2023-04-18T16:13:12.539Z,41.06
2023-04-18T16:16:15.035Z,39.72
2023-04-18T16:19:17.167Z,39.99
2023-04-18T16:22:19.845Z,39.87
2023-04-18T16:25:21.836Z,39.84
2023-04-18T16:28:24.179Z,40.20
2023-04-18T16:31:26.228Z,40.66
2023-04-18T16:34:28.556Z,41.52
2023-04-18T16:37:30.702Z,40.14
2023-04-18T16:40:34.964Z,41.49
2023-04-18T16:43:37.907Z,41.82
2023-04-18T16:46:40.525Z,43.90
2023-04-18T16:49:44.048Z,41.91
2023-04-18T16:52:46.349Z,43.20
2023-04-18T16:55:50.263Z,41.50
2023-04-18T16:58:52.646Z,40.96
2023-04-18T17:01:54.806Z,43.13
2023-04-18T17:04:57.466Z,42.15
2023-04-18T17:08:00.390Z,41.08
2023-04-18T17:11:02.916Z,40.56
2023-04-18T17:14:04.965Z,41.69
2023-04-18T17:17:07.310Z,42.14
2023-04-18T17:20:09.798Z,43.24
2023-04-18T17:23:12.697Z,41.21
2023-04-18T17:26:14.726Z,43.77
2023-04-18T17:29:18.404Z,41.99
2023-04-18T17:32:21.268Z,41.18
2023-04-18T17:35:23.620Z,43.46
2023-04-18T17:38:26.177Z,44.40
2023-04-18T17:41:31.007Z,46.50
2023-04-18T17:44:36.367Z,46.58
2023-04-18T17:47:41.357Z,45.86
2023-04-18T17:50:43.659Z,47.40
2023-04-18T17:53:46.803Z,50.19
2023-04-18T17:56:50.314Z,47.76
2023-04-18T17:59:53.832Z,49.47
2023-04-18T18:02:57.062Z,48.70
2023-04-18T18:05:59.549Z,49.08
2023-04-18T18:09:01.675Z,53.21
2023-04-18T18:12:04.187Z,50.39
2023-04-18T18:15:07.630Z,50.63
2023-04-18T18:18:10.069Z,51.16
2023-04-18T18:21:13.280Z,51.80
2023-04-18T18:24:16.149Z,52.94
2023-04-18T18:27:20.315Z,52.58
2023-04-18T18:30:22.803Z,52.03
2023-04-18T18:33:24.940Z,53.13
2023-04-18T18:36:27.730Z,52.87
2023-04-18T18:39:29.931Z,53.24
2023-04-18T18:42:32.406Z,54.57
2023-04-18T18:45:34.513Z,55.25
2023-04-18T18:48:38.247Z,57.13
2023-04-18T18:51:41.423Z,58.17
2023-04-18T18:54:43.853Z,59.06
2023-04-18T18:57:46.661Z,59.58
2023-04-18T19:00:49.330Z,60.78
2023-04-18T19:03:51.691Z,63.04
2023-04-18T19:06:54.219Z,62.28
2023-04-18T19:09:56.430Z,62.86
2023-04-18T19:13:00.340Z,62.51
2023-04-18T19:16:03.664Z,63.01
2023-04-18T19:19:06.246Z,61.98
2023-04-18T19:22:08.676Z,58.12
2023-04-18T19:25:11.267Z,59.26
2023-04-18T19:28:14.644Z,57.54
2023-04-18T19:31:17.104Z,52.09
2023-04-18T19:34:19.197Z,51.58
2023-04-18T19:37:21.634Z,51.92
2023-04-18T19:40:26.680Z,49.03
2023-04-18T19:43:29.266Z,49.39
2023-04-18T19:46:31.527Z,48.98
2023-04-18T19:49:34.190Z,47.01
2023-04-18T19:52:36.412Z,50.76
2023-04-18T19:55:39.082Z,49.99
2023-04-18T19:58:46.211Z,50.15
2023-04-18T20:01:48.741Z,48.23
2023-04-18T20:04:51.370Z,50.01
2023-04-18T20:07:53.621Z,48.79
2023-04-18T20:10:56.528Z,50.57
2023-04-18T20:13:58.628Z,48.58
2023-04-18T20:17:02.150Z,50.39
2023-04-18T20:20:04.673Z,48.73
2023-04-18T20:23:07.453Z,47.77
2023-04-18T20:26:09.561Z,48.84
2023-04-18T20:29:12.424Z,46.45
2023-04-18T20:32:14.768Z,46.33
2023-04-18T20:35:17.405Z,49.37
2023-04-18T20:38:20.196Z,47.38
2023-04-18T20:41:24.234Z,47.76
2023-04-18T20:44:26.497Z,47.62
2023-04-18T20:47:29.127Z,47.64
2023-04-18T20:50:31.761Z,49.42
2023-04-18T20:53:34.317Z,49.86
2023-04-18T20:56:37.000Z,47.57
2023-04-18T20:59:39.522Z,50.16
2023-04-18T21:02:41.750Z,49.11
2023-04-18T21:05:45.011Z,48.70
2023-04-18T21:08:47.227Z,49.15
2023-04-18T21:11:49.771Z,51.44
2023-04-18T21:14:51.967Z,52.62
2023-04-18T21:17:54.710Z,53.06
2023-04-18T21:20:56.895Z,52.55
2023-04-18T21:23:59.676Z,52.40
2023-04-18T21:27:02.502Z,52.04
2023-04-18T21:30:05.579Z,50.69
2023-04-18T21:33:07.784Z,52.61
2023-04-18T21:36:10.333Z,51.70
2023-04-18T21:39:12.577Z,51.22
2023-04-18T21:42:15.017Z,51.67
2023-04-18T21:45:17.713Z,51.13
2023-04-18T21:48:20.285Z,50.38
2023-04-18T21:51:22.577Z,50.50
2023-04-18T21:54:25.416Z,51.59
2023-04-18T21:57:27.492Z,50.50
2023-04-18T22:00:30.128Z,52.00
2023-04-18T22:03:34.111Z,51.88
2023-04-18T22:06:36.544Z,53.21
2023-04-18T22:09:39.062Z,51.48
2023-04-18T22:12:42.580Z,51.25
2023-04-18T22:15:45.144Z,51.98
2023-04-18T22:18:48.924Z,51.18
2023-04-18T22:21:51.592Z,52.15
2023-04-18T22:24:53.904Z,52.40
2023-04-18T22:27:56.528Z,52.01
2023-04-18T22:30:59.980Z,51.55
2023-04-18T22:34:02.707Z,51.82
2023-04-18T22:37:05.066Z,52.80
2023-04-18T22:40:09.670Z,53.30
2023-04-18T22:43:11.884Z,53.98
2023-04-18T22:46:14.609Z,54.00
2023-04-18T22:49:18.029Z,52.29
2023-04-18T22:52:23.789Z,53.57
2023-04-18T22:55:25.925Z,51.16
2023-04-18T22:58:28.427Z,51.40
2023-04-18T23:01:30.830Z,54.27
2023-04-18T23:04:33.682Z,50.88
2023-04-18T23:07:35.865Z,50.86
2023-04-18T23:10:38.766Z,50.81
2023-04-18T23:13:40.995Z,51.71
2023-04-18T23:16:43.910Z,49.97
2023-04-18T23:19:46.158Z,49.49
2023-04-18T23:22:51.574Z,50.13
2023-04-18T23:25:53.989Z,49.79
2023-04-18T23:28:56.582Z,48.50
2023-04-18T23:31:58.742Z,47.70
2023-04-18T23:35:04.372Z,48.08
2023-04-18T23:38:06.858Z,49.57
2023-04-18T23:41:09.605Z,49.08
2023-04-18T23:44:11.739Z,47.54
2023-04-18T23:47:14.393Z,49.20
2023-04-18T23:50:16.660Z,48.75
2023-04-18T23:53:20.069Z,49.42
2023-04-18T23:56:23.249Z,48.73
2023-04-18T23:59:25.902Z,48.33
